Time;durP1;ratioP1;P1;durP2;ratioP2;P2;SDS_P1;SDS_P2;PMS_P1;PMS_P2;Temp;Humidity;BMP_temperature;BMP_pressure;BME280_temperature;BME280_humidity;BME280_pressure;Samples;Min_cycle;Max_cycle;Signal;HPM_P1;HPM_P2
2021/10/19 00:01:20;;;;;;;70.87;35.03;;;;;;;8.34;89.18;99840.02;2209191;80;20980;-67
2021/10/19 00:04:20;;;;;;;65.17;33.02;;;;;;;8.31;89.04;99840.13;2209722;80;20993;-67
2021/10/19 00:07:21;;;;;;;60.60;31.10;;;;;;;8.27;89.06;99842.44;2208171;80;20953;-67
2021/10/19 00:10:21;;;;;;;63.15;32.73;;;;;;;8.23;89.04;99839.53;2208396;80;21000;-67
2021/10/19 00:13:21;;;;;;;67.10;34.18;;;;;;;8.22;89.11;99842.61;2209246;80;20980;-67
2021/10/19 00:16:22;;;;;;;65.70;32.30;;;;;;;8.20;89.08;99844.41;2206450;81;21052;-67
2021/10/19 00:19:22;;;;;;;63.02;30.82;;;;;;;8.21;89.09;99842.20;2209824;80;21534;-67
2021/10/19 00:22:23;;;;;;;66.65;33.45;;;;;;;8.22;89.00;99844.39;2210439;80;21490;-67
2021/10/19 00:25:23;;;;;;;67.08;35.50;;;;;;;8.20;89.02;99840.48;2209895;80;21278;-67
2021/10/19 00:28:25;;;;;;;63.83;33.43;;;;;;;8.20;89.02;99835.27;2208965;80;21039;-67
2021/10/19 00:31:25;;;;;;;65.28;32.85;;;;;;;8.18;88.71;99844.93;2210861;80;21506;-67
2021/10/19 00:34:26;;;;;;;67.82;32.70;;;;;;;8.09;88.63;99841.34;2210591;80;20981;-67
2021/10/19 00:37:26;;;;;;;58.65;31.42;;;;;;;8.04;88.72;99841.48;2209877;80;21024;-67
2021/10/19 00:40:27;;;;;;;66.65;31.93;;;;;;;8.04;88.83;99841.48;2210569;80;21044;-67
2021/10/19 00:43:27;;;;;;;66.35;32.73;;;;;;;8.07;88.89;99841.83;2207678;80;21020;-67
2021/10/19 00:46:28;;;;;;;63.75;33.02;;;;;;;8.09;88.90;99840.03;2210969;80;21000;-68
2021/10/19 00:49:28;;;;;;;67.03;33.48;;;;;;;8.12;88.80;99847.30;2208607;80;20952;-67
2021/10/19 00:52:29;;;;;;;58.17;31.68;;;;;;;8.07;88.57;99833.53;2208037;80;21487;-68
2021/10/19 00:55:29;;;;;;;61.18;31.77;;;;;;;8.03;88.48;99835.88;2210446;80;21487;-67
2021/10/19 00:58:29;;;;;;;63.65;31.15;;;;;;;7.97;88.45;99834.33;2210839;80;21079;-67
2021/10/19 01:01:30;;;;;;;65.70;30.95;;;;;;;7.94;88.64;99829.20;2209389;80;20960;-67
2021/10/19 01:04:30;;;;;;;62.50;30.97;;;;;;;7.92;88.55;99829.70;2208835;80;21020;-68
2021/10/19 01:07:31;;;;;;;69.30;33.55;;;;;;;7.92;88.62;99827.08;2209856;80;20992;-67
2021/10/19 01:10:31;;;;;;;67.62;34.13;;;;;;;7.88;88.43;99825.47;2208472;80;21012;-67
2021/10/19 01:13:32;;;;;;;70.08;34.95;;;;;;;7.83;88.31;99827.84;2208860;80;20988;-68
2021/10/19 01:16:32;;;;;;;71.53;35.78;;;;;;;7.71;88.12;99827.80;2208486;80;20980;-67
2021/10/19 01:19:32;;;;;;;68.37;34.13;;;;;;;7.65;88.60;99826.71;2210763;80;20976;-67
2021/10/19 01:22:33;;;;;;;72.10;36.33;;;;;;;7.59;88.65;99826.00;2207047;80;21012;-68
2021/10/19 01:25:33;;;;;;;67.72;33.98;;;;;;;7.52;88.66;99823.19;2208577;80;21537;-67
2021/10/19 01:28:34;;;;;;;67.40;35.05;;;;;;;7.44;88.42;99822.14;2208739;80;20993;-68
2021/10/19 01:31:35;;;;;;;65.55;34.60;;;;;;;7.32;88.16;99807.33;2208400;80;21154;-67
2021/10/19 01:34:35;;;;;;;65.70;33.38;;;;;;;7.20;88.52;99811.18;2208054;80;21511;-67
2021/10/19 01:37:36;;;;;;;62.98;30.68;;;;;;;7.09;88.63;99812.34;2209479;80;21075;-68
2021/10/19 01:40:36;;;;;;;62.90;30.17;;;;;;;7.01;88.46;99813.48;2208820;80;21068;-67
2021/10/19 01:43:37;;;;;;;66.90;34.90;;;;;;;6.92;88.26;99811.58;2208678;80;20977;-67
2021/10/19 01:46:37;;;;;;;69.87;36.30;;;;;;;6.87;88.43;99812.16;2209735;80;20965;-68
2021/10/19 01:49:38;;;;;;;67.47;34.48;;;;;;;6.76;88.45;99808.55;2208723;80;21004;-67
2021/10/19 01:52:38;;;;;;;68.40;35.03;;;;;;;6.66;88.47;99804.51;2207955;80;20973;-67
2021/10/19 01:55:38;;;;;;;71.60;34.48;;;;;;;6.52;88.41;99801.02;2207993;80;20981;-67
2021/10/19 01:58:39;;;;;;;68.00;33.33;;;;;;;6.40;88.50;99796.15;2210613;80;21536;-67
2021/10/19 02:01:39;;;;;;;69.72;34.73;;;;;;;6.33;88.82;99790.70;2210436;80;21462;-67
2021/10/19 02:04:40;;;;;;;70.37;35.00;;;;;;;6.29;89.25;99791.68;2208439;80;20985;-67
2021/10/19 02:07:40;;;;;;;73.22;36.15;;;;;;;6.29;89.68;99786.02;2208869;80;21035;-67
2021/10/19 02:10:41;;;;;;;68.97;35.03;;;;;;;6.38;89.98;99784.47;2208712;80;20969;-67
2021/10/19 02:13:41;;;;;;;68.85;35.48;;;;;;;6.39;89.81;99782.70;2208844;80;20996;-67
2021/10/19 02:16:41;;;;;;;63.58;32.83;;;;;;;6.40;89.96;99787.02;2209331;80;20980;-67
2021/10/19 02:19:42;;;;;;;64.12;31.52;;;;;;;6.39;89.56;99791.82;2207965;80;20969;-67
2021/10/19 02:22:42;;;;;;;60.92;31.42;;;;;;;6.37;89.72;99798.39;2208758;80;21044;-67
2021/10/19 02:25:43;;;;;;;63.45;31.87;;;;;;;6.36;89.73;99788.84;2210374;80;21448;-67
2021/10/19 02:28:44;;;;;;;64.22;33.08;;;;;;;6.36;89.78;99788.84;2209600;80;21004;-67
2021/10/19 02:31:44;;;;;;;62.80;32.70;;;;;;;6.37;89.70;99792.33;2209859;80;21008;-67
2021/10/19 02:34:45;;;;;;;65.32;31.02;;;;;;;6.31;89.36;99794.66;2208436;80;21471;-67
2021/10/19 02:37:46;;;;;;;61.63;29.35;;;;;;;6.22;89.33;99789.26;2209323;80;21482;-67
2021/10/19 02:40:46;;;;;;;57.05;30.00;;;;;;;6.13;88.89;99786.89;2210386;80;21008;-67
2021/10/19 02:43:47;;;;;;;60.70;32.05;;;;;;;6.03;88.54;99786.31;2209287;80;20973;-67
2021/10/19 02:46:47;;;;;;;60.48;33.13;;;;;;;6.01;89.28;99800.27;2209020;80;21040;-67
2021/10/19 02:49:48;;;;;;;69.55;35.55;;;;;;;5.98;89.47;99792.53;2210218;80;20953;-67
2021/10/19 02:52:48;;;;;;;65.87;33.38;;;;;;;5.97;89.51;99794.27;2207005;80;21008;-67
2021/10/19 02:55:48;;;;;;;50.10;25.88;;;;;;;5.91;89.27;99795.70;2209844;80;21464;-67
2021/10/19 02:58:49;;;;;;;58.13;28.10;;;;;;;5.86;88.43;99802.77;2210465;80;20985;-67
2021/10/19 03:01:49;;;;;;;52.65;25.88;;;;;;;5.73;88.14;99795.72;2209741;80;20992;-67
2021/10/19 03:04:50;;;;;;;60.05;32.03;;;;;;;5.57;87.55;99793.12;2209349;80;20996;-67
2021/10/19 03:07:51;;;;;;;59.95;32.53;;;;;;;5.44;88.26;99796.01;2204614;80;21029;-67
2021/10/19 03:10:51;;;;;;;66.30;36.25;;;;;;;5.42;88.56;99787.86;2207562;80;20965;-67
2021/10/19 03:13:51;;;;;;;66.07;33.95;;;;;;;5.35;88.66;99781.94;2209561;80;20984;-67
2021/10/19 03:16:52;;;;;;;60.00;30.52;;;;;;;5.30;89.17;99785.08;2209509;80;21471;-67
2021/10/19 03:19:52;;;;;;;57.65;29.98;;;;;;;5.29;89.32;99792.04;2206884;80;21036;-67
2021/10/19 03:22:53;;;;;;;61.80;30.52;;;;;;;5.28;89.25;99781.67;2209466;80;20996;-67
2021/10/19 03:25:54;;;;;;;58.90;31.15;;;;;;;5.26;89.25;99781.72;2210331;80;21570;-67
2021/10/19 03:28:54;;;;;;;55.70;28.57;;;;;;;5.28;89.59;99780.37;2209564;80;20956;-67
2021/10/19 03:31:55;;;;;;;56.00;28.77;;;;;;;5.32;89.46;99782.02;2208107;80;20957;-67
2021/10/19 03:34:55;;;;;;;55.45;27.52;;;;;;;5.29;89.25;99785.53;2210080;80;21139;-67
2021/10/19 03:37:55;;;;;;;53.08;27.05;;;;;;;5.25;89.03;99786.50;2209212;80;21012;-67
2021/10/19 03:40:56;;;;;;;56.68;27.37;;;;;;;5.21;89.17;99783.56;2206881;80;21008;-67
2021/10/19 03:43:56;;;;;;;56.90;25.57;;;;;;;5.20;89.21;99777.51;2258177;79;21463;-67
2021/10/19 03:46:57;;;;;;;50.67;25.32;;;;;;;5.23;89.42;99784.82;2217146;80;21475;-67
2021/10/19 03:49:57;;;;;;;49.23;24.65;;;;;;;5.25;89.20;99783.05;2220886;80;21012;-67
2021/10/19 03:52:58;;;;;;;50.40;26.48;;;;;;;5.20;88.81;99786.61;2213078;80;21080;-67
2021/10/19 03:55:58;;;;;;;53.08;27.32;;;;;;;5.14;88.61;99783.29;2216337;80;20972;-67
2021/10/19 03:58:58;;;;;;;55.90;29.80;;;;;;;5.05;88.68;99783.06;2218024;80;21024;-67
2021/10/19 04:01:59;;;;;;;51.68;26.65;;;;;;;5.01;88.88;99780.12;2216798;80;21044;-67
2021/10/19 04:04:59;;;;;;;50.83;26.62;;;;;;;4.99;89.06;99784.06;2213203;80;20957;-67
2021/10/19 04:08:00;;;;;;;58.25;28.23;;;;;;;4.98;88.96;99782.80;2212952;80;21048;-67
2021/10/19 04:11:00;;;;;;;50.95;27.05;;;;;;;4.98;89.07;99790.14;2215038;80;21471;-67
2021/10/19 04:14:01;;;;;;;56.37;29.72;;;;;;;4.99;89.24;99789.26;2206945;80;21507;-67
2021/10/19 04:17:02;;;;;;;57.67;29.92;;;;;;;4.97;89.26;99785.85;2221128;80;21154;-67
2021/10/19 04:20:02;;;;;;;56.95;28.57;;;;;;;4.98;89.14;99791.89;2221319;80;21079;-67
2021/10/19 04:23:02;;;;;;;54.75;26.55;;;;;;;5.00;89.04;99797.94;2220966;80;21063;-67
2021/10/19 04:26:03;;;;;;;54.53;25.60;;;;;;;4.96;88.77;99794.98;2213192;80;20980;-67
2021/10/19 04:29:04;;;;;;;54.30;27.65;;;;;;;4.93;88.78;99800.23;2201096;80;21102;-68
2021/10/19 04:32:04;;;;;;;54.75;27.42;;;;;;;4.92;88.89;99795.94;2212884;80;21452;-67
2021/10/19 04:35:05;;;;;;;54.58;27.70;;;;;;;4.96;89.10;99797.13;2204797;80;21002;-67
2021/10/19 04:38:05;;;;;;;58.63;29.00;;;;;;;5.01;89.20;99795.72;2204594;80;21068;-67
2021/10/19 04:41:05;;;;;;;54.98;27.05;;;;;;;5.04;89.86;99799.55;2200942;80;21020;-67
2021/10/19 04:44:07;;;;;;;51.18;25.08;;;;;;;5.13;89.79;99801.08;2259198;79;21487;-67
2021/10/19 04:47:08;;;;;;;51.37;25.95;;;;;;;5.15;89.46;99801.92;2217384;80;20984;-67
2021/10/19 04:50:08;;;;;;;55.65;27.25;;;;;;;5.17;89.59;99806.20;2204846;80;20989;-67
2021/10/19 04:53:09;;;;;;;57.13;27.87;;;;;;;5.28;89.84;99803.79;2209327;80;21020;-67
2021/10/19 04:56:10;;;;;;;56.23;29.15;;;;;;;5.38;90.01;99803.52;2208175;81;21071;-67
2021/10/19 04:59:10;;;;;;;54.30;26.52;;;;;;;5.45;89.97;99800.33;2209481;80;21027;-67
2021/10/19 05:02:11;;;;;;;45.73;22.22;;;;;;;5.50;89.60;99799.78;2208879;80;20993;-67
2021/10/19 05:05:11;;;;;;;52.33;23.70;;;;;;;5.58;89.40;99802.64;2208974;80;20996;-67
2021/10/19 05:08:11;;;;;;;46.10;21.68;;;;;;;5.60;88.95;99799.54;2208884;80;21037;-67
2021/10/19 05:11:12;;;;;;;42.93;20.57;;;;;;;5.62;88.89;99801.67;2210625;80;21004;-67
2021/10/19 05:14:12;;;;;;;49.23;23.90;;;;;;;5.63;88.58;99803.36;2207702;80;21070;-67
2021/10/19 05:17:13;;;;;;;52.35;26.93;;;;;;;5.59;88.51;99803.02;2209649;80;21479;-67
2021/10/19 05:20:13;;;;;;;57.67;30.27;;;;;;;5.58;88.73;99806.55;2208815;80;21483;-67
2021/10/19 05:23:14;;;;;;;60.20;29.15;;;;;;;5.58;88.99;99800.88;2209967;81;20972;-67
2021/10/19 05:26:14;;;;;;;53.73;27.70;;;;;;;5.61;89.07;99800.80;2210716;80;21068;-67
2021/10/19 05:29:15;;;;;;;59.20;28.12;;;;;;;5.63;89.09;99788.63;2208580;80;21006;-67
2021/10/19 05:32:17;;;;;;;60.50;28.73;;;;;;;5.66;89.37;99791.14;2209820;80;21000;-67
2021/10/19 05:35:17;;;;;;;63.50;30.35;;;;;;;5.71;89.65;99797.06;2210817;80;21355;-67
2021/10/19 05:38:18;;;;;;;66.82;33.08;;;;;;;5.81;89.79;99796.84;2209565;80;20988;-67
2021/10/19 05:41:19;;;;;;;75.37;35.50;;;;;;;5.91;90.19;99802.22;2208666;80;21072;-67
2021/10/19 05:44:21;;;;;;;72.50;34.90;;;;;;;6.04;90.27;99807.53;2210407;80;21004;-67
2021/10/19 05:47:21;;;;;;;116.40;45.47;;;;;;;6.16;90.13;99810.28;2210719;80;21605;-67
2021/10/19 05:50:22;;;;;;;77.97;36.10;;;;;;;6.27;90.15;99811.27;2209512;80;21012;-67
2021/10/19 05:53:22;;;;;;;80.70;37.20;;;;;;;6.43;90.10;99813.45;2210875;80;20992;-67
2021/10/19 05:56:23;;;;;;;80.38;37.00;;;;;;;6.55;90.07;99816.56;2209685;80;20961;-67
2021/10/19 05:59:23;;;;;;;75.37;37.70;;;;;;;6.67;90.15;99807.99;2207829;80;21004;-67
2021/10/19 06:02:23;;;;;;;72.47;35.58;;;;;;;6.80;90.16;99798.05;2208500;80;21541;-67
2021/10/19 06:05:24;;;;;;;72.55;34.50;;;;;;;6.94;90.26;99806.31;2209152;80;21514;-67
2021/10/19 06:08:24;;;;;;;65.67;34.43;;;;;;;7.09;90.28;99811.50;2209159;80;21008;-67
2021/10/19 06:11:25;;;;;;;66.77;32.75;;;;;;;7.25;90.20;99819.70;2210116;81;21076;-67
2021/10/19 06:14:25;;;;;;;79.62;40.28;;;;;;;7.39;90.04;99824.49;2210472;80;20984;-67
2021/10/19 06:17:26;;;;;;;69.80;35.80;;;;;;;7.51;89.75;99818.02;2209775;80;21114;-67
2021/10/19 06:20:26;;;;;;;74.45;35.33;;;;;;;7.63;89.55;99821.08;2207552;80;20949;-67
2021/10/19 06:23:26;;;;;;;63.02;31.15;;;;;;;7.76;89.45;99814.16;2208933;80;21024;-67
2021/10/19 06:26:29;;;;;;;71.77;33.55;;;;;;;7.83;89.02;99813.05;2208544;80;21563;-67
2021/10/19 06:29:31;;;;;;;67.05;33.00;;;;;;;7.90;88.96;99811.05;2213697;80;21012;-68
2021/10/19 06:32:31;;;;;;;64.22;29.70;;;;;;;7.97;88.86;99817.34;2209708;80;20988;-67
2021/10/19 06:35:32;;;;;;;59.63;27.98;;;;;;;8.01;88.59;99819.38;2209392;80;21072;-67
2021/10/19 06:38:32;;;;;;;57.83;27.10;;;;;;;8.08;88.71;99818.26;2209242;80;20977;-67
2021/10/19 06:41:33;;;;;;;55.15;26.52;;;;;;;8.15;88.34;99817.59;2207544;81;21103;-67
2021/10/19 06:44:34;;;;;;;61.80;26.80;;;;;;;8.20;87.95;99816.13;2209653;80;20996;-67
2021/10/19 06:47:34;;;;;;;64.97;29.48;;;;;;;8.26;88.03;99816.77;2206850;80;21059;-67
2021/10/19 06:50:36;;;;;;;66.02;33.88;;;;;;;8.33;87.88;99816.95;2206635;80;20993;-67
2021/10/19 06:53:36;;;;;;;94.17;44.60;;;;;;;8.40;87.61;99809.72;2209869;80;21100;-67
2021/10/19 06:56:37;;;;;;;64.92;31.62;;;;;;;8.51;87.89;99807.22;2208602;80;21020;-67
2021/10/19 06:59:37;;;;;;;68.90;32.50;;;;;;;8.64;87.69;99814.53;2212473;80;22856;-67
2021/10/19 07:02:38;;;;;;;62.15;30.20;;;;;;;8.82;87.46;99813.44;2207882;80;21475;-67
2021/10/19 07:05:38;;;;;;;55.50;28.07;;;;;;;9.10;87.57;99812.40;2209385;80;20985;-67
2021/10/19 07:08:39;;;;;;;51.75;27.90;;;;;;;9.40;87.06;99806.86;2209402;80;20985;-67
2021/10/19 07:11:39;;;;;;;50.98;25.77;;;;;;;9.68;86.59;99798.27;2208857;80;20988;-67
2021/10/19 07:14:40;;;;;;;47.83;24.57;;;;;;;10.03;85.12;99801.14;2207317;80;20973;-67
2021/10/19 07:17:40;;;;;;;44.98;21.85;;;;;;;10.37;85.63;99802.33;2209667;80;21466;-67
2021/10/19 07:20:41;;;;;;;47.45;23.00;;;;;;;10.75;83.57;99796.25;2208340;80;20984;-67
2021/10/19 07:23:41;;;;;;;42.17;19.23;;;;;;;10.97;82.54;99793.46;2209746;80;21061;-67
2021/10/19 07:26:41;;;;;;;47.43;21.65;;;;;;;11.03;80.67;99794.51;2209496;80;21031;-67
2021/10/19 07:29:44;;;;;;;38.42;18.80;;;;;;;11.07;81.10;99790.78;2208818;80;21016;-67
2021/10/19 07:32:44;;;;;;;39.05;18.45;;;;;;;11.00;80.54;99801.66;2208174;81;21475;-67
2021/10/19 07:35:45;;;;;;;39.40;18.80;;;;;;;10.91;79.89;99805.09;2208721;80;20997;-67
2021/10/19 07:38:48;;;;;;;41.20;17.35;;;;;;;10.89;81.26;99811.37;2210277;80;21053;-67
2021/10/19 07:41:47;;;;;;;37.93;17.35;;;;;;;10.92;80.87;99802.03;2208632;80;20961;-67
2021/10/19 07:44:48;;;;;;;37.75;16.77;;;;;;;10.98;81.07;99795.65;2210470;80;20973;-67
2021/10/19 07:47:48;;;;;;;39.25;17.95;;;;;;;11.06;80.69;99795.67;2209057;80;20981;-67
2021/10/19 07:50:49;;;;;;;38.58;17.70;;;;;;;11.13;80.97;99791.42;2210164;81;21051;-67
2021/10/19 07:53:49;;;;;;;37.85;17.57;;;;;;;11.20;79.59;99784.95;2210637;80;21566;-66
2021/10/19 07:56:50;;;;;;;36.90;16.00;;;;;;;11.24;79.66;99787.36;2209660;80;20984;-67
2021/10/19 07:59:50;;;;;;;35.83;15.83;;;;;;;11.20;77.97;99784.95;2207438;80;21044;-67
2021/10/19 08:02:51;;;;;;;34.05;15.35;;;;;;;11.19;79.69;99789.38;2206455;80;20997;-67
2021/10/19 08:05:51;;;;;;;34.35;15.05;;;;;;;11.25;78.45;99792.16;2209465;80;20973;-67
2021/10/19 08:08:51;;;;;;;37.95;15.95;;;;;;;11.21;77.66;99795.86;2210683;80;21020;-67
2021/10/19 08:11:52;;;;;;;38.13;15.45;;;;;;;11.26;78.13;99791.22;2209112;80;21053;-66
2021/10/19 08:14:56;;;;;;;40.70;17.82;;;;;;;11.43;78.81;99782.08;2209889;80;21487;-66
2021/10/19 08:17:55;;;;;;;36.60;15.20;;;;;;;11.58;79.05;99783.08;2205012;80;21051;-66
2021/10/19 08:20:56;;;;;;;32.90;14.15;;;;;;;11.76;77.02;99784.39;2210769;80;21011;-67
2021/10/19 08:23:57;;;;;;;33.75;13.98;;;;;;;11.86;76.93;99786.09;2208954;80;21039;-67
2021/10/19 08:26:57;;;;;;;36.50;14.95;;;;;;;12.00;77.01;99788.89;2210479;80;21075;-66
2021/10/19 08:29:57;;;;;;;36.40;14.23;;;;;;;12.23;76.18;99796.06;2208877;80;20988;-67
2021/10/19 08:32:58;;;;;;;34.88;14.43;;;;;;;12.40;76.47;99799.96;2209627;80;20969;-66
2021/10/19 08:35:58;;;;;;;32.83;12.50;;;;;;;12.48;76.13;99803.05;2206528;80;21041;-67
2021/10/19 08:38:59;;;;;;;30.92;11.48;;;;;;;12.54;74.53;99801.00;2209095;80;21452;-67
2021/10/19 08:41:59;;;;;;;29.15;11.35;;;;;;;12.64;73.08;99807.46;2212243;80;21543;-67
2021/10/19 08:45:00;;;;;;;27.58;11.95;;;;;;;12.77;70.19;99813.78;2209671;80;20984;-67
2021/10/19 08:48:02;;;;;;;29.98;11.80;;;;;;;12.92;72.96;99804.66;2208825;80;21060;-67
2021/10/19 08:51:03;;;;;;;28.05;11.60;;;;;;;13.00;71.38;99812.52;2209722;80;20964;-66
2021/10/19 08:54:05;;;;;;;30.17;11.05;;;;;;;13.10;69.33;99820.77;2209572;80;20992;-67
2021/10/19 08:57:05;;;;;;;27.05;10.30;;;;;;;13.14;71.64;99822.74;2209652;80;20992;-67
2021/10/19 09:00:05;;;;;;;25.80;10.53;;;;;;;13.33;73.11;99827.38;2208806;80;21008;-67
2021/10/19 09:03:06;;;;;;;26.25;9.75;;;;;;;13.46;70.70;99824.92;2209014;80;21016;-67
2021/10/19 09:06:07;;;;;;;26.60;9.73;;;;;;;13.51;68.14;99825.48;2255065;79;20988;-67
2021/10/19 09:09:07;;;;;;;25.05;9.38;;;;;;;13.53;68.35;99810.91;2216790;80;21495;-66
2021/10/19 09:12:08;;;;;;;26.10;9.60;;;;;;;13.54;67.36;99815.25;2254854;79;20984;-66
2021/10/19 09:15:09;;;;;;;26.55;9.15;;;;;;;13.53;66.17;99820.61;2217826;80;21067;-67
2021/10/19 09:18:10;;;;;;;28.07;10.90;;;;;;;13.49;67.22;99808.09;2263351;79;20983;-67
2021/10/19 09:21:11;;;;;;;24.20;8.48;;;;;;;13.44;69.27;99812.28;2204918;80;21000;-66
2021/10/19 09:24:11;;;;;;;28.27;9.20;;;;;;;13.33;64.99;99814.20;2254618;79;21538;-67
2021/10/19 09:27:12;;;;;;;25.80;8.80;;;;;;;13.47;68.24;99814.74;2217100;80;21472;-66
2021/10/19 09:30:12;;;;;;;26.17;10.45;;;;;;;13.55;68.07;99791.91;2254562;79;21016;-68
2021/10/19 09:33:13;;;;;;;26.87;10.78;;;;;;;13.71;70.29;99801.58;2204954;80;21004;-68
2021/10/19 09:36:13;;;;;;;28.70;10.25;;;;;;;13.98;68.97;99788.55;2259028;79;20980;-67
2021/10/19 09:39:13;;;;;;;24.77;9.38;;;;;;;14.36;68.33;99793.27;2217222;80;21066;-68
2021/10/19 09:42:14;;;;;;;26.17;9.83;;;;;;;14.72;69.17;99788.00;2248874;79;21012;-67
2021/10/19 09:45:14;;;;;;;26.50;9.23;;;;;;;15.04;67.27;99782.45;2213349;80;21514;-67
2021/10/19 09:48:15;;;;;;;24.37;8.80;;;;;;;15.17;64.78;99782.06;2255716;79;21531;-66
2021/10/19 09:51:15;;;;;;;25.60;10.38;;;;;;;15.32;63.32;99780.69;2258789;78;21042;-67
2021/10/19 09:54:16;;;;;;;25.27;9.60;;;;;;;15.36;65.08;99771.61;2216130;80;20984;-68
2021/10/19 09:57:16;;;;;;;26.15;8.28;;;;;;;15.31;64.36;99765.28;2257525;79;21024;-67
2021/10/19 10:00:17;;;;;;;26.35;8.95;;;;;;;15.35;62.56;99754.05;2215232;80;21020;-68
2021/10/19 10:03:17;;;;;;;26.95;9.53;;;;;;;15.22;63.47;99751.36;2237548;79;21029;-67
2021/10/19 10:06:18;;;;;;;25.05;8.53;;;;;;;15.32;64.62;99743.20;2253672;79;20992;-68
2021/10/19 10:09:18;;;;;;;28.32;9.13;;;;;;;15.51;63.87;99730.91;2214140;80;20980;-66
2021/10/19 10:12:19;;;;;;;24.35;8.23;;;;;;;15.66;64.56;99726.41;2258469;79;20972;-66
2021/10/19 10:15:19;;;;;;;21.30;7.20;;;;;;;15.88;63.41;99724.48;2217312;80;21486;-66
2021/10/19 10:18:20;;;;;;;22.30;7.00;;;;;;;16.08;62.07;99716.98;2253868;79;20981;-68
2021/10/19 10:21:20;;;;;;;22.80;6.25;;;;;;;16.14;61.24;99721.83;2242237;79;20969;-66
2021/10/19 10:24:21;;;;;;;22.00;6.53;;;;;;;16.24;57.54;99716.74;2216795;80;21644;-67
2021/10/19 10:27:21;;;;;;;23.95;6.65;;;;;;;16.14;60.44;99713.06;2250424;79;21470;-66
2021/10/19 10:30:21;;;;;;;19.50;6.33;;;;;;;16.20;61.17;99706.83;2213197;80;20989;-69
2021/10/19 10:33:22;;;;;;;19.73;5.97;;;;;;;16.34;60.27;99703.22;2254469;79;20984;-67
2021/10/19 10:36:22;;;;;;;18.50;5.80;;;;;;;16.43;58.03;99699.06;2214967;80;20985;-66
2021/10/19 10:39:23;;;;;;;23.27;6.58;;;;;;;16.40;59.91;99689.53;2253805;79;20964;-69
2021/10/19 10:42:23;;;;;;;21.70;7.45;;;;;;;16.40;59.86;99703.27;2259253;78;21008;-67
2021/10/19 10:45:24;;;;;;;37.38;14.98;;;;;;;16.47;58.39;99698.39;2216774;80;22105;-66
2021/10/19 10:48:24;;;;;;;43.15;20.17;;;;;;;16.36;57.70;99694.67;2208733;80;21142;-67
2021/10/19 10:51:25;;;;;;;44.03;19.40;;;;;;;16.30;58.21;99695.13;2208306;81;21016;-66
2021/10/19 10:54:25;;;;;;;22.00;6.80;;;;;;;16.33;59.58;99691.42;2209829;80;21084;-66
2021/10/19 10:57:25;;;;;;;28.67;10.28;;;;;;;16.44;57.23;99694.98;2254071;79;20973;-69
2021/10/19 11:00:26;;;;;;;20.82;6.62;;;;;;;16.45;54.83;99698.02;2218484;80;20984;-66
2021/10/19 11:03:27;;;;;;;20.60;6.05;;;;;;;16.27;55.62;99680.79;2249572;79;21492;-68
2021/10/19 11:06:27;;;;;;;20.90;6.03;;;;;;;16.25;57.13;99687.52;2217058;80;21490;-68
2021/10/19 11:09:28;;;;;;;19.02;5.67;;;;;;;16.17;53.70;99696.95;2249651;79;21024;-66
2021/10/19 11:12:34;;;;;;;21.33;6.60;;;;;;;16.01;54.17;99687.93;2218427;80;21019;-69
2021/10/19 11:15:31;;;;;;;24.75;9.50;;;;;;;16.10;57.17;99675.36;2229956;79;20957;-68
2021/10/19 11:18:31;;;;;;;25.30;9.70;;;;;;;16.25;57.08;99668.98;2215577;80;21016;-68
2021/10/19 11:21:32;;;;;;;23.73;7.85;;;;;;;16.42;56.97;99668.24;2253638;79;21465;-66
2021/10/19 11:24:32;;;;;;;21.57;7.08;;;;;;;16.61;54.95;99662.48;2215567;80;20976;-68
2021/10/19 11:27:33;;;;;;;22.32;6.62;;;;;;;16.73;54.50;99669.52;2249648;79;21038;-66
2021/10/19 11:30:34;;;;;;;20.65;6.53;;;;;;;16.83;55.58;99665.72;2254851;78;20981;-66
2021/10/19 11:33:34;;;;;;;23.05;6.80;;;;;;;16.99;54.91;99658.00;2217262;80;21505;-69
2021/10/19 11:36:35;;;;;;;21.42;6.85;;;;;;;16.96;52.48;99657.73;2254548;79;21035;-68
2021/10/19 11:39:35;;;;;;;19.65;6.00;;;;;;;17.02;54.04;99653.79;2253014;79;21546;-66
2021/10/19 11:42:36;;;;;;;19.73;5.17;;;;;;;17.05;53.16;99659.72;2254956;79;21474;-66
2021/10/19 11:45:36;;;;;;;21.65;5.85;;;;;;;17.09;52.59;99654.53;2216589;80;21021;-66
2021/10/19 11:48:37;;;;;;;24.07;6.83;;;;;;;17.02;52.74;99650.64;2254434;79;21035;-66
2021/10/19 11:51:37;;;;;;;22.82;6.60;;;;;;;17.10;54.43;99651.42;2215350;80;20944;-66
2021/10/19 11:54:38;;;;;;;19.70;6.50;;;;;;;17.24;53.85;99649.03;2250436;79;21033;-67
2021/10/19 11:57:38;;;;;;;21.50;5.83;;;;;;;17.23;52.79;99636.27;2255157;78;20946;-67
2021/10/19 12:00:39;;;;;;;21.50;6.67;;;;;;;17.16;52.16;99630.23;2215342;80;21448;-66
2021/10/19 12:03:39;;;;;;;23.57;6.08;;;;;;;17.21;53.03;99628.06;2246874;79;20970;-66
2021/10/19 12:06:39;;;;;;;21.20;5.92;;;;;;;17.27;53.41;99623.14;2215902;80;21036;-69
2021/10/19 12:09:41;;;;;;;17.00;5.22;;;;;;;17.42;53.48;99618.47;2242166;79;21092;-66
2021/10/19 12:12:42;;;;;;;18.98;4.90;;;;;;;17.46;51.71;99609.31;2246005;79;21067;-66
2021/10/19 12:15:42;;;;;;;19.07;5.45;;;;;;;17.35;51.56;99607.97;2215940;80;20937;-70
2021/10/19 12:18:43;;;;;;;19.23;5.37;;;;;;;17.28;52.99;99603.64;2252949;79;21519;-66
2021/10/19 12:21:43;;;;;;;19.85;5.78;;;;;;;17.29;52.97;99598.67;2254560;78;21067;-67
2021/10/19 12:24:47;;;;;;;18.45;5.35;;;;;;;17.36;53.62;99588.45;2215727;80;20988;-66
2021/10/19 12:27:46;;;;;;;;;;;;;;;17.45;52.16;99579.77;2224990;79;20988;-70
2021/10/19 12:30:47;;;;;;;16.27;4.65;;;;;;;17.47;50.99;99583.16;2212695;80;20100;-66
2021/10/19 12:33:47;;;;;;;17.52;4.50;;;;;;;17.54;51.15;99587.52;2216858;80;21122;-67
2021/10/19 12:36:48;;;;;;;15.98;4.78;;;;;;;17.54;51.06;99580.89;2254100;79;20933;-66
2021/10/19 12:39:48;;;;;;;16.37;4.35;;;;;;;17.74;50.79;99565.20;2218173;80;20956;-66
2021/10/19 12:42:49;;;;;;;17.98;4.62;;;;;;;17.58;49.71;99565.56;2248728;79;21469;-66
2021/10/19 12:45:49;;;;;;;16.05;4.15;;;;;;;17.59;50.93;99572.08;2251833;79;20964;-69
2021/10/19 12:48:50;;;;;;;14.38;4.00;;;;;;;17.77;50.88;99567.60;2216807;80;20952;-69
2021/10/19 12:55:28;;;;;;;15.75;4.28;;;;;;;17.83;49.32;99579.08;2251370;79;21531;-70
2021/10/19 12:58:31;;;;;;;16.85;4.40;;;;;;;17.76;49.80;99573.89;2217258;80;20977;-70
2021/10/19 13:01:31;;;;;;;;;;;;;;;17.76;49.78;99556.66;2226676;79;21531;-70
2021/10/19 13:04:31;;;;;;;16.10;4.53;;;;;;;17.46;49.99;99558.92;2212171;80;20108;-66
2021/10/19 13:07:32;;;;;;;18.52;4.70;;;;;;;17.17;50.67;99549.27;2216260;80;21066;-68
2021/10/19 13:10:32;;;;;;;20.82;4.90;;;;;;;17.16;50.75;99552.04;2245061;79;21000;-70
2021/10/19 13:13:33;;;;;;;21.80;5.83;;;;;;;17.31;51.60;99545.53;2216160;80;21479;-70
2021/10/19 13:16:33;;;;;;;19.62;5.40;;;;;;;17.54;50.84;99529.17;2254178;79;20981;-65
2021/10/19 13:19:34;;;;;;;19.82;5.65;;;;;;;17.55;51.86;99524.70;2215249;80;21051;-66
2021/10/19 13:22:34;;;;;;;18.50;5.12;;;;;;;17.48;51.47;99525.20;2262741;79;20988;-66
2021/10/19 13:25:35;;;;;;;19.00;5.37;;;;;;;17.39;52.07;99527.23;2254699;78;21009;-66
2021/10/19 13:28:35;;;;;;;20.68;5.28;;;;;;;17.41;51.59;99516.49;2215517;80;20972;-67
2021/10/19 13:31:37;;;;;;;21.07;6.83;;;;;;;17.68;51.23;99508.66;2257259;79;21437;-65
2021/10/19 13:34:38;;;;;;;22.45;6.22;;;;;;;17.82;50.73;99513.20;2250825;78;20981;-70
2021/10/19 13:37:38;;;;;;;22.70;6.12;;;;;;;17.92;49.17;99499.25;2218478;80;20964;-70
2021/10/19 13:40:40;;;;;;;21.65;7.05;;;;;;;17.77;50.01;99503.92;2249868;79;21032;-66
2021/10/19 13:43:40;;;;;;;22.90;6.95;;;;;;;17.39;50.17;99509.16;2218804;80;21510;-70
2021/10/19 13:46:41;;;;;;;20.57;6.62;;;;;;;17.00;51.21;99519.25;2262135;79;21018;-65
2021/10/19 13:49:41;;;;;;;21.35;6.30;;;;;;;16.66;50.86;99513.33;2215671;80;21024;-70
2021/10/19 13:52:42;;;;;;;23.15;6.58;;;;;;;16.41;51.52;99515.18;2240820;79;21024;-66
2021/10/19 13:55:43;;;;;;;19.20;5.90;;;;;;;16.21;52.13;99520.63;2219739;80;21036;-70
2021/10/19 13:58:44;;;;;;;22.22;7.10;;;;;;;16.08;52.26;99506.61;2245506;79;21012;-66
2021/10/19 14:01:44;;;;;;;22.93;7.22;;;;;;;15.94;52.79;99504.47;2218074;80;20994;-66